Time;durP1;ratioP1;P1;durP2;ratioP2;P2;SDS_P1;SDS_P2;PMS_P1;PMS_P2;Temp;Humidity;BMP_temperature;BMP_pressure;BME280_temperature;BME280_humidity;BME280_pressure;Samples;Min_cycle;Max_cycle;Signal;HPM_P1;HPM_P2
2021/07/11 00:00:13;;;;;;;;;;;;;;;;;;5063109;28;1368;-53
2021/07/11 00:02:38;;;;;;;;;;;;;;;;;;5058782;28;1910;-54
2021/07/11 00:05:04;;;;;;;;;;;;;;;;;;5061745;28;1303;-54
2021/07/11 00:07:30;;;;;;;;;;;;;;;;;;5061140;28;1684;-53
2021/07/11 00:09:55;;;;;;;;;;;;;;;;;;5059798;28;1524;-53
2021/07/11 00:12:20;;;;;;;;;;;;;;;;;;5061336;28;1643;-53
2021/07/11 00:14:46;;;;;;;;;;;;;;;;;;5061726;28;1179;-53
2021/07/11 00:17:11;;;;;;;;;;;;;;;;;;5061643;28;1299;-54
2021/07/11 00:19:36;;;;;;;;;;;;;;;;;;5061120;28;1667;-53
2021/07/11 00:22:01;;;;;;;;;;;;;;;;;;5061300;28;1973;-53
2021/07/11 00:24:26;;;;;;;;;;;;;;;;;;5059861;28;1659;-54
2021/07/11 00:26:52;;;;;;;;;;;;;;;;;;5060914;28;1394;-54
2021/07/11 00:29:17;;;;;;;;;;;;;;;;;;5062691;28;1124;-54
2021/07/11 00:31:42;;;;;;;;;;;;;;;;;;5058574;28;1490;-52
2021/07/11 00:34:07;;;;;;;;;;;;;;;;;;5061047;28;1652;-54
2021/07/11 00:36:32;;;;;;;;;;;;;;;;;;5055969;28;1591;-52
2021/07/11 00:38:57;;;;;;;;;;;;;;;;;;5061059;28;1604;-53
2021/07/11 00:41:23;;;;;;;;;;;;;;;;;;5060758;28;1890;-53
2021/07/11 00:43:48;;;;;;;;;;;;;;;;;;5059385;28;1276;-54
2021/07/11 00:46:13;;;;;;;;;;;;;;;;;;5061149;28;1228;-53
2021/07/11 00:48:38;;;;;;;;;;;;;;;;;;5057171;28;1683;-54
2021/07/11 00:51:04;;;;;;;;;;;;;;;;;;5055416;28;1483;-53
2021/07/11 00:53:29;;;;;;;;;;;;;;;;;;5059307;28;1254;-53
2021/07/11 00:55:54;;;;;;;;;;;;;;;;;;5059146;28;1698;-54
2021/07/11 00:58:19;;;;;;;;;;;;;;;;;;5058697;28;1498;-54
2021/07/11 01:00:49;;;;;;;;;;;;;;;;;;5058374;28;1368;-54
2021/07/11 01:03:25;;;;;;;;;;;;;;;;;;5053776;28;1913;-53
2021/07/11 01:05:50;;;;;;;;;;;;;;;;;;5057681;28;1587;-54
2021/07/11 01:08:18;;;;;;;;;;;;;;;;;;5061559;28;1251;-53
2021/07/11 01:10:44;;;;;;;;;;;;;;;;;;5041346;28;1609;-53
2021/07/11 01:13:11;;;;;;;;;;;;;;;;;;5040969;28;1428;-54
2021/07/11 01:15:37;;;;;;;;;;;;;;;;;;5057796;28;1246;-54
2021/07/11 01:18:02;;;;;;;;;;;;;;;;;;5058456;28;1655;-54
2021/07/11 01:20:38;;;;;;;;;;;;;;;;;;5061629;28;1396;-54
2021/07/11 01:23:04;;;;;;;;;;;;;;;;;;5043707;28;1903;-53
2021/07/11 01:25:33;;;;;;;;;;;;;;;;;;5057551;28;1966;-53
2021/07/11 01:27:59;;;;;;;;;;;;;;;;;;5060541;28;1165;-53
2021/07/11 01:30:24;;;;;;;;;;;;;;;;;;5059253;28;1526;-53
2021/07/11 01:32:49;;;;;;;;;;;;;;;;;;5059320;28;1580;-53
2021/07/11 01:35:14;;;;;;;;;;;;;;;;;;5058861;28;1519;-53
2021/07/11 01:37:39;;;;;;;;;;;;;;;;;;4977536;28;1324;-52
2021/07/11 01:40:06;;;;;;;;;;;;;;;;;;5041113;28;1562;-53
2021/07/11 01:42:31;;;;;;;;;;;;;;;;;;5059585;28;1905;-54
2021/07/11 01:44:56;;;;;;;;;;;;;;;;;;5041767;28;1093;-53
2021/07/11 01:47:22;;;;;;;;;;;;;;;;;;5053307;28;1556;-53
2021/07/11 01:49:47;;;;;;;;;;;;;;;;;;5033329;28;1828;-53
2021/07/11 01:52:12;;;;;;;;;;;;;;;;;;5030920;28;1896;-54
2021/07/11 01:54:37;;;;;;;;;;;;;;;;;;5055815;28;1732;-54
2021/07/11 01:57:02;;;;;;;;;;;;;;;;;;5042713;28;1267;-53
2021/07/11 01:59:28;;;;;;;;;;;;;;;;;;5058176;28;1391;-54
2021/07/11 02:01:53;;;;;;;;;;;;;;;;;;5060040;28;1918;-54
2021/07/11 02:04:19;;;;;;;;;;;;;;;;;;5055878;28;1642;-52
2021/07/11 02:06:44;;;;;;;;;;;;;;;;;;5053924;28;1577;-54
2021/07/11 02:09:09;;;;;;;;;;;;;;;;;;5054898;28;1547;-53
2021/07/11 02:11:38;;;;;;;;;;;;;;;;;;5058820;28;1195;-53
2021/07/11 02:14:06;;;;;;;;;;;;;;;;;;5040861;28;1451;-53
2021/07/11 02:16:34;;;;;;;;;;;;;;;;;;5058799;28;1611;-54
2021/07/11 02:18:59;;;;;;;;;;;;;;;;;;5057875;28;1659;-54
2021/07/11 02:21:25;;;;;;;;;;;;;;;;;;5056569;28;1389;-53
2021/07/11 02:23:50;;;;;;;;;;;;;;;;;;5056463;28;1902;-54
2021/07/11 02:26:15;;;;;;;;;;;;;;;;;;5058868;28;1451;-54
2021/07/11 02:28:40;;;;;;;;;;;;;;;;;;5059933;28;1195;-54
2021/07/11 02:31:11;;;;;;;;;;;;;;;;;;5040747;28;1283;-54
2021/07/11 02:33:36;;;;;;;;;;;;;;;;;;5041373;28;1550;-53
2021/07/11 02:36:02;;;;;;;;;;;;;;;;;;5040366;28;1341;-52
2021/07/11 02:38:30;;;;;;;;;;;;;;;;;;5061557;28;1221;-53
2021/07/11 02:40:55;;;;;;;;;;;;;;;;;;5039733;28;1632;-54
2021/07/11 02:43:20;;;;;;;;;;;;;;;;;;5057284;28;1978;-53
2021/07/11 02:45:45;;;;;;;;;;;;;;;;;;5041114;28;1256;-54
2021/07/11 02:48:12;;;;;;;;;;;;;;;;;;5039648;28;1660;-53
2021/07/11 02:50:38;;;;;;;;;;;;;;;;;;5058227;28;1635;-51
2021/07/11 02:53:03;;;;;;;;;;;;;;;;;;5038242;28;1392;-53
2021/07/11 02:55:29;;;;;;;;;;;;;;;;;;5039377;28;1566;-53
2021/07/11 02:57:55;;;;;;;;;;;;;;;;;;5040285;28;1547;-53
2021/07/11 03:00:20;;;;;;;;;;;;;;;;;;5059810;28;1192;-53
2021/07/11 03:02:45;;;;;;;;;;;;;;;;;;5029567;22;1945;-53
2021/07/11 03:05:11;;;;;;;;;;;;;;;;;;4997377;28;1174;-54
2021/07/11 03:07:36;;;;;;;;;;;;;;;;;;4995781;28;1660;-53
2021/07/11 03:10:02;;;;;;;;;;;;;;;;;;5001105;28;1705;-53
2021/07/11 03:12:27;;;;;;;;;;;;;;;;;;5001686;28;1392;-53
2021/07/11 03:14:52;;;;;;;;;;;;;;;;;;5006142;28;1193;-53
2021/07/11 03:17:18;;;;;;;;;;;;;;;;;;4999018;28;1515;-53
2021/07/11 03:19:43;;;;;;;;;;;;;;;;;;5005019;28;1202;-54
2021/07/11 03:22:08;;;;;;;;;;;;;;;;;;5000735;28;1960;-53
2021/07/11 03:24:33;;;;;;;;;;;;;;;;;;4998268;28;1652;-54
2021/07/11 03:26:59;;;;;;;;;;;;;;;;;;5004854;28;1280;-53
2021/07/11 03:29:29;;;;;;;;;;;;;;;;;;5005759;28;1240;-54
2021/07/11 03:31:55;;;;;;;;;;;;;;;;;;5000492;28;1524;-54
2021/07/11 03:34:21;;;;;;;;;;;;;;;;;;5004193;28;1119;-54
2021/07/11 03:36:46;;;;;;;;;;;;;;;;;;5002312;28;1248;-54
2021/07/11 03:39:11;;;;;;;;;;;;;;;;;;5001123;28;1579;-53
2021/07/11 03:41:37;;;;;;;;;;;;;;;;;;5001784;28;1895;-54
2021/07/11 03:44:02;;;;;;;;;;;;;;;;;;5006063;28;1098;-53
2021/07/11 03:46:28;;;;;;;;;;;;;;;;;;4999807;28;1542;-53
2021/07/11 03:48:56;;;;;;;;;;;;;;;;;;4992713;28;1671;-53
2021/07/11 03:51:25;;;;;;;;;;;;;;;;;;4998209;28;1377;-53
2021/07/11 03:53:54;;;;;;;;;;;;;;;;;;4999794;28;1615;-53
2021/07/11 03:56:19;;;;;;;;;;;;;;;;;;5007309;28;1208;-53
2021/07/11 03:58:44;;;;;;;;;;;;;;;;;;5003822;28;1351;-53
2021/07/11 04:01:09;;;;;;;;;;;;;;;;;;5002973;28;1273;-53
2021/07/11 04:03:35;;;;;;;;;;;;;;;;;;4998390;28;1910;-54
2021/07/11 04:06:01;;;;;;;;;;;;;;;;;;4993687;28;1652;-53
2021/07/11 04:08:26;;;;;;;;;;;;;;;;;;5000027;28;1339;-53
2021/07/11 04:10:51;;;;;;;;;;;;;;;;;;4990453;28;1613;-53
2021/07/11 04:13:17;;;;;;;;;;;;;;;;;;5001802;28;1351;-54
2021/07/11 04:15:43;;;;;;;;;;;;;;;;;;5001454;28;1309;-52
2021/07/11 04:18:11;;;;;;;;;;;;;;;;;;5003084;28;1546;-53
2021/07/11 04:20:37;;;;;;;;;;;;;;;;;;4998375;28;1597;-53
2021/07/11 04:23:03;;;;;;;;;;;;;;;;;;5006642;28;1894;-53
2021/07/11 04:25:29;;;;;;;;;;;;;;;;;;4998771;28;1665;-53
2021/07/11 04:27:54;;;;;;;;;;;;;;;;;;5001128;28;1107;-53
2021/07/11 04:30:19;;;;;;;;;;;;;;;;;;5000821;28;1091;-53
2021/07/11 04:32:44;;;;;;;;;;;;;;;;;;5003677;28;1576;-53
2021/07/11 04:35:10;;;;;;;;;;;;;;;;;;5001331;28;1197;-53
2021/07/11 04:37:35;;;;;;;;;;;;;;;;;;5005818;28;1248;-53
2021/07/11 04:40:00;;;;;;;;;;;;;;;;;;5002075;28;1572;-54
2021/07/11 04:42:25;;;;;;;;;;;;;;;;;;5003979;28;1965;-53
2021/07/11 04:44:51;;;;;;;;;;;;;;;;;;5006290;28;1146;-53
2021/07/11 04:47:16;;;;;;;;;;;;;;;;;;5002012;28;1669;-53
2021/07/11 04:49:41;;;;;;;;;;;;;;;;;;5005455;28;1236;-54
2021/07/11 04:52:07;;;;;;;;;;;;;;;;;;4999290;28;1394;-53
2021/07/11 04:54:32;;;;;;;;;;;;;;;;;;5003750;28;1595;-53
2021/07/11 04:56:58;;;;;;;;;;;;;;;;;;5001119;28;1364;-54
2021/07/11 04:59:23;;;;;;;;;;;;;;;;;;5006751;28;1224;-54
2021/07/11 05:01:48;;;;;;;;;;;;;;;;;;5002031;28;1982;-52
2021/07/11 05:04:13;;;;;;;;;;;;;;;;;;5003831;28;1154;-53
2021/07/11 05:06:38;;;;;;;;;;;;;;;;;;5002448;28;1629;-53
2021/07/11 05:09:04;;;;;;;;;;;;;;;;;;5003439;28;1635;-54
2021/07/11 05:11:29;;;;;;;;;;;;;;;;;;5001086;28;1318;-54
2021/07/11 05:13:54;;;;;;;;;;;;;;;;;;5004602;28;1552;-53
2021/07/11 05:16:20;;;;;;;;;;;;;;;;;;5001000;28;1474;-53
2021/07/11 05:18:45;;;;;;;;;;;;;;;;;;5006181;28;1221;-53
2021/07/11 05:21:10;;;;;;;;;;;;;;;;;;5000563;28;1587;-54
2021/07/11 05:23:35;;;;;;;;;;;;;;;;;;5003150;28;1931;-53
2021/07/11 05:26:00;;;;;;;;;;;;;;;;;;5000193;28;2035;-53
2021/07/11 05:28:25;;;;;;;;;;;;;;;;;;5005232;28;1447;-54
2021/07/11 05:30:51;;;;;;;;;;;;;;;;;;5002965;28;1190;-53
2021/07/11 05:33:16;;;;;;;;;;;;;;;;;;5001616;28;1495;-53
2021/07/11 05:35:41;;;;;;;;;;;;;;;;;;4999847;28;1513;-54
2021/07/11 05:38:06;;;;;;;;;;;;;;;;;;5002569;28;1485;-53
2021/07/11 05:40:31;;;;;;;;;;;;;;;;;;5002682;28;1666;-53
2021/07/11 05:42:57;;;;;;;;;;;;;;;;;;5001596;28;1899;-53
2021/07/11 05:45:22;;;;;;;;;;;;;;;;;;5004505;28;1580;-53
2021/07/11 05:47:47;;;;;;;;;;;;;;;;;;5000689;28;1153;-52
2021/07/11 05:50:12;;;;;;;;;;;;;;;;;;5004580;28;1113;-53
2021/07/11 05:52:37;;;;;;;;;;;;;;;;;;5003052;28;1587;-53
2021/07/11 05:55:03;;;;;;;;;;;;;;;;;;5002865;28;1553;-53
2021/07/11 05:57:30;;;;;;;;;;;;;;;;;;5006970;28;1285;-52
2021/07/11 05:59:55;;;;;;;;;;;;;;;;;;4986768;28;1531;-53
2021/07/11 06:02:20;;;;;;;;;;;;;;;;;;5004305;28;1981;-54
2021/07/11 06:04:45;;;;;;;;;;;;;;;;;;5008679;28;1193;-55
2021/07/11 06:07:11;;;;;;;;;;;;;;;;;;5003958;28;1620;-53
2021/07/11 06:09:36;;;;;;;;;;;;;;;;;;5001308;28;1554;-53
2021/07/11 06:12:01;;;;;;;;;;;;;;;;;;5007690;28;1437;-53
2021/07/11 06:14:26;;;;;;;;;;;;;;;;;;5004680;28;1087;-53
2021/07/11 06:16:51;;;;;;;;;;;;;;;;;;5001061;28;1573;-52
2021/07/11 06:19:17;;;;;;;;;;;;;;;;;;5006656;28;1098;-53
2021/07/11 06:21:42;;;;;;;;;;;;;;;;;;5001941;28;1906;-53
2021/07/11 06:24:08;;;;;;;;;;;;;;;;;;5002498;28;1564;-53
2021/07/11 06:26:33;;;;;;;;;;;;;;;;;;4999858;28;1552;-52
2021/07/11 06:28:58;;;;;;;;;;;;;;;;;;5002299;28;1154;-53
2021/07/11 06:31:23;;;;;;;;;;;;;;;;;;5001066;28;1837;-53
2021/07/11 06:33:48;;;;;;;;;;;;;;;;;;5003538;28;1241;-53
2021/07/11 06:36:13;;;;;;;;;;;;;;;;;;4998298;28;1315;-53
2021/07/11 06:38:39;;;;;;;;;;;;;;;;;;4999755;28;1591;-52
2021/07/11 06:41:04;;;;;;;;;;;;;;;;;;4998101;28;1359;-54
2021/07/11 06:43:29;;;;;;;;;;;;;;;;;;4997827;28;1902;-53
2021/07/11 06:45:54;;;;;;;;;;;;;;;;;;5003930;28;1144;-53
2021/07/11 06:48:19;;;;;;;;;;;;;;;;;;4999150;28;1597;-53
2021/07/11 06:50:45;;;;;;;;;;;;;;;;;;5003217;28;1766;-53
2021/07/11 06:53:10;;;;;;;;;;;;;;;;;;5008595;28;1802;-53
2021/07/11 06:55:35;;;;;;;;;;;;;;;;;;5003492;28;1572;-53
2021/07/11 06:58:01;;;;;;;;;;;;;;;;;;5009435;28;1190;-54
2021/07/11 07:00:26;;;;;;;;;;;;;;;;;;5003249;28;1558;-54
2021/07/11 07:02:51;;;;;;;;;;;;;;;;;;5008230;28;1906;-53
2021/07/11 07:05:16;;;;;;;;;;;;;;;;;;5003917;28;1658;-53
2021/07/11 07:07:41;;;;;;;;;;;;;;;;;;5007421;28;1754;-54
2021/07/11 07:10:13;;;;;;;;;;;;;;;;;;5002696;28;1685;-53
2021/07/11 07:12:38;;;;;;;;;;;;;;;;;;5007880;28;1526;-55
2021/07/11 07:15:04;;;;;;;;;;;;;;;;;;5009449;28;1396;-53
2021/07/11 07:17:29;;;;;;;;;;;;;;;;;;5004936;28;1125;-53
2021/07/11 07:19:54;;;;;;;;;;;;;;;;;;5005823;28;1639;-54
2021/07/11 07:22:19;;;;;;;;;;;;;;;;;;5003838;28;1902;-54
2021/07/11 07:24:45;;;;;;;;;;;;;;;;;;5004719;28;1586;-53
2021/07/11 07:27:10;;;;;;;;;;;;;;;;;;5007999;28;1162;-53
2021/07/11 07:29:35;;;;;;;;;;;;;;;;;;5002570;28;1387;-54
2021/07/11 07:32:00;;;;;;;;;;;;;;;;;;5006484;28;1603;-53
2021/07/11 07:34:25;;;;;;;;;;;;;;;;;;5002953;28;1372;-53
2021/07/11 07:36:50;;;;;;;;;;;;;;;;;;4994397;28;1446;-53
2021/07/11 07:39:16;;;;;;;;;;;;;;;;;;5003701;28;1568;-52
2021/07/11 07:41:41;;;;;;;;;;;;;;;;;;5003941;28;1911;-52
2021/07/11 07:44:06;;;;;;;;;;;;;;;;;;5007508;28;1482;-53
2021/07/11 07:46:31;;;;;;;;;;;;;;;;;;5003385;28;1046;-54
2021/07/11 07:48:56;;;;;;;;;;;;;;;;;;5004080;28;1615;-54
2021/07/11 07:51:22;;;;;;;;;;;;;;;;;;5005387;28;1535;-53
2021/07/11 07:53:47;;;;;;;;;;;;;;;;;;5002794;28;1556;-53
2021/07/11 07:56:12;;;;;;;;;;;;;;;;;;5002582;28;1182;-54
2021/07/11 07:58:37;;;;;;;;;;;;;;;;;;5003546;28;1236;-54
2021/07/11 08:01:02;;;;;;;;;;;;;;;;;;5004642;28;1447;-54
2021/07/11 08:03:28;;;;;;;;;;;;;;;;;;5003920;28;1966;-53
2021/07/11 08:05:53;;;;;;;;;;;;;;;;;;5001976;28;1567;-54
2021/07/11 08:08:18;;;;;;;;;;;;;;;;;;5006639;28;1118;-53
2021/07/11 08:10:44;;;;;;;;;;;;;;;;;;5001347;28;1638;-53
2021/07/11 08:13:09;;;;;;;;;;;;;;;;;;5005185;28;1286;-53
2021/07/11 08:15:34;;;;;;;;;;;;;;;;;;5002304;28;1340;-53
2021/07/11 08:17:59;;;;;;;;;;;;;;;;;;5008687;28;1154;-53
2021/07/11 08:20:24;;;;;;;;;;;;;;;;;;5001045;28;1611;-53
2021/07/11 08:22:50;;;;;;;;;;;;;;;;;;5005496;28;1903;-54
2021/07/11 08:25:15;;;;;;;;;;;;;;;;;;5002013;28;1596;-54
2021/07/11 08:27:40;;;;;;;;;;;;;;;;;;5002704;28;1212;-54
2021/07/11 08:30:06;;;;;;;;;;;;;;;;;;5003897;28;1428;-53
2021/07/11 08:32:31;;;;;;;;;;;;;;;;;;5004523;28;1406;-54
2021/07/11 08:34:56;;;;;;;;;;;;;;;;;;5000699;28;1618;-53
2021/07/11 08:37:22;;;;;;;;;;;;;;;;;;5006102;28;1356;-54
2021/07/11 08:39:47;;;;;;;;;;;;;;;;;;5003966;28;1515;-54
2021/07/11 08:42:12;;;;;;;;;;;;;;;;;;5002388;28;1978;-54
2021/07/11 08:44:37;;;;;;;;;;;;;;;;;;5000513;28;1621;-53
2021/07/11 08:47:03;;;;;;;;;;;;;;;;;;5006168;28;1438;-53
2021/07/11 08:49:28;;;;;;;;;;;;;;;;;;5004696;28;1599;-53
2021/07/11 08:51:55;;;;;;;;;;;;;;;;;;5001599;28;1292;-53
2021/07/11 08:54:20;;;;;;;;;;;;;;;;;;4995790;28;1551;-54
2021/07/11 08:56:46;;;;;;;;;;;;;;;;;;5005489;28;1098;-53
2021/07/11 08:59:11;;;;;;;;;;;;;;;;;;5002745;28;1182;-54
2021/07/11 09:01:36;;;;;;;;;;;;;;;;;;5032748;23;1996;-55
2021/07/11 09:04:02;;;;;;;;;;;;;;;;;;5077364;28;1965;-54
2021/07/11 09:06:38;;;;;;;;;;;;;;;;;;5074187;28;1497;-54
2021/07/11 09:09:03;;;;;;;;;;;;;;;;;;5078485;28;1549;-53
2021/07/11 09:11:28;;;;;;;;;;;;;;;;;;5078214;28;1375;-54
2021/07/11 09:13:53;;;;;;;;;;;;;;;;;;5068466;28;1127;-55
2021/07/11 09:16:18;;;;;;;;;;;;;;;;;;5064988;28;1438;-54
2021/07/11 09:18:44;;;;;;;;;;;;;;;;;;5064044;28;1639;-53
2021/07/11 09:21:11;;;;;;;;;;;;;;;;;;5070511;28;1166;-55
2021/07/11 09:23:36;;;;;;;;;;;;;;;;;;5064685;28;1914;-54
2021/07/11 09:26:02;;;;;;;;;;;;;;;;;;5050912;28;973;-53
2021/07/11 09:28:27;;;;;;;;;;;;;;;;;;5070498;28;1115;-54
2021/07/11 09:31:09;;;;;;;;;;;;;;;;;;5069694;28;1278;-54
2021/07/11 09:33:35;;;;;;;;;;;;;;;;;;5066796;28;1608;-54
2021/07/11 09:36:04;;;;;;;;;;;;;;;;;;5068717;28;985;-55
2021/07/11 09:38:29;;;;;;;;;;;;;;;;;;5071387;28;1163;-53
2021/07/11 09:40:54;;;;;;;;;;;;;;;;;;5065027;28;1671;-55
2021/07/11 09:43:19;;;;;;;;;;;;;;;;;;5069458;28;1967;-54
2021/07/11 09:45:45;;;;;;;;;;;;;;;;;;5070498;28;1099;-55
2021/07/11 09:48:10;;;;;;;;;;;;;;;;;;5061020;28;1557;-53
2021/07/11 09:50:36;;;;;;;;;;;;;;;;;;5067945;28;1175;-53
2021/07/11 09:53:01;;;;;;;;;;;;;;;;;;5060148;28;1562;-53
2021/07/11 09:55:27;;;;;;;;;;;;;;;;;;5063421;28;1604;-54
2021/07/11 09:57:52;;;;;;;;;;;;;;;;;;5064274;28;1379;-53
2021/07/11 10:00:24;;;;;;;;;;;;;;;;;;5069154;28;1187;-53
2021/07/11 10:02:50;;;;;;;;;;;;;;;;;;5063788;28;1914;-54
2021/07/11 10:05:16;;;;;;;;;;;;;;;;;;5066730;28;1222;-54
2021/07/11 10:07:41;;;;;;;;;;;;;;;;;;5061902;28;1627;-53
2021/07/11 10:10:07;;;;;;;;;;;;;;;;;;5064591;28;1627;-54
2021/07/11 10:12:32;;;;;;;;;;;;;;;;;;5066783;28;1347;-55
2021/07/11 10:14:57;;;;;;;;;;;;;;;;;;5067778;28;1227;-53
2021/07/11 10:17:22;;;;;;;;;;;;;;;;;;5065228;28;1571;-54
2021/07/11 10:19:48;;;;;;;;;;;;;;;;;;5063386;28;1065;-53
2021/07/11 10:22:14;;;;;;;;;;;;;;;;;;5067426;28;1967;-54
2021/07/11 10:24:40;;;;;;;;;;;;;;;;;;5063919;28;1575;-54
2021/07/11 10:27:15;;;;;;;;;;;;;;;;;;5069341;28;1230;-54
2021/07/11 10:29:43;;;;;;;;;;;;;;;;;;5065044;28;1933;-54
2021/07/11 10:32:08;;;;;;;;;;;;;;;;;;5064616;28;1365;-54
2021/07/11 10:34:38;;;;;;;;;;;;;;;;;;5064764;28;1580;-55
2021/07/11 10:37:11;;;;;;;;;;;;;;;;;;5066270;28;1388;-55
2021/07/11 10:39:36;;;;;;;;;;;;;;;;;;5063192;28;1504;-55
2021/07/11 10:42:01;;;;;;;;;;;;;;;;;;5065673;28;1956;-54
2021/07/11 10:44:27;;;;;;;;;;;;;;;;;;5067970;28;1179;-55
2021/07/11 10:46:56;;;;;;;;;;;;;;;;;;5063925;28;1655;-54
2021/07/11 10:49:21;;;;;;;;;;;;;;;;;;5068266;28;1314;-54
2021/07/11 10:51:50;;;;;;;;;;;;;;;;;;5067425;28;1346;-54
2021/07/11 10:54:28;;;;;;;;;;;;;;;;;;5061892;28;1552;-54
2021/07/11 10:57:00;;;;;;;;;;;;;;;;;;5067092;28;1097;-53
2021/07/11 10:59:38;;;;;;;;;;;;;;;;;;5065377;28;1804;-54
2021/07/11 11:02:16;;;;;;;;;;;;;;;;;;5065608;28;1913;-54
2021/07/11 11:04:43;;;;;;;;;;;;;;;;;;5070152;28;1068;-53
2021/07/11 11:07:15;;;;;;;;;;;;;;;;;;5065910;28;1513;-54
2021/07/11 11:09:41;;;;;;;;;;;;;;;;;;5060852;28;1580;-54
2021/07/11 11:12:22;;;;;;;;;;;;;;;;;;5066155;28;1297;-55
2021/07/11 11:14:54;;;;;;;;;;;;;;;;;;5060552;28;1629;-54
2021/07/11 11:17:45;;;;;;;;;;;;;;;;;;5064264;28;1674;-54
2021/07/11 11:20:13;;;;;;;;;;;;;;;;;;5064857;28;1980;-54
2021/07/11 11:22:39;;;;;;;;;;;;;;;;;;5069808;28;1907;-54
2021/07/11 11:25:04;;;;;;;;;;;;;;;;;;5059394;28;1473;-53
2021/07/11 11:27:36;;;;;;;;;;;;;;;;;;5069304;28;1207;-55
2021/07/11 11:30:10;;;;;;;;;;;;;;;;;;5067034;28;1145;-53
2021/07/11 11:32:35;;;;;;;;;;;;;;;;;;5060530;28;1530;-54
2021/07/11 11:35:00;;;;;;;;;;;;;;;;;;5067244;28;1266;-54
2021/07/11 11:37:26;;;;;;;;;;;;;;;;;;5062438;28;1563;-55
2021/07/11 11:39:51;;;;;;;;;;;;;;;;;;5069799;28;1596;-55
2021/07/11 11:42:19;;;;;;;;;;;;;;;;;;5067126;28;1894;-54
2021/07/11 11:44:45;;;;;;;;;;;;;;;;;;5050703;28;1100;-55
2021/07/11 11:47:10;;;;;;;;;;;;;;;;;;5068969;28;1356;-56
2021/07/11 11:49:36;;;;;;;;;;;;;;;;;;5051654;28;1665;-55
2021/07/11 11:52:01;;;;;;;;;;;;;;;;;;5072167;28;1362;-54
2021/07/11 11:54:33;;;;;;;;;;;;;;;;;;5067085;28;1652;-55
2021/07/11 11:56:58;;;;;;;;;;;;;;;;;;5070437;28;1120;-55
2021/07/11 11:59:24;;;;;;;;;;;;;;;;;;5072493;28;1211;-55
2021/07/11 12:01:53;;;;;;;;;;;;;;;;;;5061620;28;1476;-55
2021/07/11 12:04:19;;;;;;;;;;;;;;;;;;5066883;28;1619;-55
2021/07/11 12:06:48;;;;;;;;;;;;;;;;;;5059755;28;1547;-55
2021/07/11 12:09:14;;;;;;;;;;;;;;;;;;5051624;28;1576;-55
2021/07/11 12:11:39;;;;;;;;;;;;;;;;;;5069732;28;1369;-55
2021/07/11 12:14:08;;;;;;;;;;;;;;;;;;5069673;28;1219;-55
2021/07/11 12:16:33;;;;;;;;;;;;;;;;;;5071890;28;1088;-55
2021/07/11 12:18:59;;;;;;;;;;;;;;;;;;5065473;28;1686;-55
2021/07/11 12:21:25;;;;;;;;;;;;;;;;;;5068640;28;1468;-54
2021/07/11 12:24:03;;;;;;;;;;;;;;;;;;5066185;28;1905;-56
2021/07/11 12:26:29;;;;;;;;;;;;;;;;;;5066541;28;1372;-55
2021/07/11 12:28:55;;;;;;;;;;;;;;;;;;5071033;28;1049;-55
2021/07/11 12:31:24;;;;;;;;;;;;;;;;;;5068529;28;1637;-54
2021/07/11 12:33:55;;;;;;;;;;;;;;;;;;5063773;28;1691;-55
2021/07/11 12:36:20;;;;;;;;;;;;;;;;;;5066217;28;1311;-55
2021/07/11 12:38:45;;;;;;;;;;;;;;;;;;5067946;28;1616;-55
2021/07/11 12:41:12;;;;;;;;;;;;;;;;;;5067678;28;1469;-55
2021/07/11 12:43:52;;;;;;;;;;;;;;;;;;5069599;28;1959;-55
2021/07/11 12:46:17;;;;;;;;;;;;;;;;;;5071714;28;1164;-55
2021/07/11 12:48:43;;;;;;;;;;;;;;;;;;5065812;28;1639;-55
2021/07/11 12:51:15;;;;;;;;;;;;;;;;;;5071673;28;1206;-55
2021/07/11 12:53:40;;;;;;;;;;;;;;;;;;5068278;28;1643;-55
2021/07/11 12:56:05;;;;;;;;;;;;;;;;;;5057844;28;1569;-53
2021/07/11 12:58:37;;;;;;;;;;;;;;;;;;5067905;28;1045;-55
2021/07/11 13:01:03;;;;;;;;;;;;;;;;;;5051779;28;1148;-56
2021/07/11 13:03:28;;;;;;;;;;;;;;;;;;5071428;28;1985;-55
2021/07/11 13:05:56;;;;;;;;;;;;;;;;;;5058594;28;1563;-53
2021/07/11 13:08:22;;;;;;;;;;;;;;;;;;5068803;28;1255;-54
2021/07/11 13:10:47;;;;;;;;;;;;;;;;;;5046582;28;1565;-55
2021/07/11 13:13:12;;;;;;;;;;;;;;;;;;5070916;28;1273;-55
2021/07/11 13:15:38;;;;;;;;;;;;;;;;;;5067767;28;1312;-55
2021/07/11 13:18:03;;;;;;;;;;;;;;;;;;5067146;28;1592;-55
2021/07/11 13:20:29;;;;;;;;;;;;;;;;;;5069690;28;1508;-52
2021/07/11 13:22:54;;;;;;;;;;;;;;;;;;5068062;28;1971;-55
2021/07/11 13:25:19;;;;;;;;;;;;;;;;;;5067286;28;1568;-55
2021/07/11 13:27:44;;;;;;;;;;;;;;;;;;5066934;28;1305;-55
2021/07/11 13:30:10;;;;;;;;;;;;;;;;;;5069377;28;1108;-55
2021/07/11 13:32:35;;;;;;;;;;;;;;;;;;5064508;28;1595;-55
2021/07/11 13:35:00;;;;;;;;;;;;;;;;;;5068818;28;1171;-56
2021/07/11 13:37:26;;;;;;;;;;;;;;;;;;5067511;28;1491;-55
2021/07/11 13:39:51;;;;;;;;;;;;;;;;;;5065608;28;1576;-55
2021/07/11 13:42:16;;;;;;;;;;;;;;;;;;5069967;28;1981;-55
2021/07/11 13:44:43;;;;;;;;;;;;;;;;;;5070268;28;1234;-53
2021/07/11 13:47:09;;;;;;;;;;;;;;;;;;5063647;28;1576;-55
2021/07/11 13:49:34;;;;;;;;;;;;;;;;;;5069528;28;1167;-55
2021/07/11 13:51:59;;;;;;;;;;;;;;;;;;5070388;28;1290;-55
2021/07/11 13:54:25;;;;;;;;;;;;;;;;;;5067672;28;1541;-55
2021/07/11 13:56:50;;;;;;;;;;;;;;;;;;5066812;28;1179;-55
2021/07/11 13:59:15;;;;;;;;;;;;;;;;;;5068220;28;1235;-55
2021/07/11 14:01:40;;;;;;;;;;;;;;;;;;5064082;28;1399;-55
2021/07/11 14:04:06;;;;;;;;;;;;;;;;;;5066872;28;1969;-55
2021/07/11 14:06:31;;;;;;;;;;;;;;;;;;5052047;28;1634;-54
2021/07/11 14:08:56;;;;;;;;;;;;;;;;;;5057277;28;1560;-54
2021/07/11 14:11:21;;;;;;;;;;;;;;;;;;5061169;28;1380;-55
2021/07/11 14:13:46;;;;;;;;;;;;;;;;;;5057777;28;1486;-55
2021/07/11 14:16:11;;;;;;;;;;;;;;;;;;5063824;28;1436;-55
2021/07/11 14:18:39;;;;;;;;;;;;;;;;;;5064485;28;1889;-55
2021/07/11 14:21:04;;;;;;;;;;;;;;;;;;5056979;28;1420;-55
2021/07/11 14:23:29;;;;;;;;;;;;;;;;;;5065901;28;1911;-55
2021/07/11 14:25:54;;;;;;;;;;;;;;;;;;5065894;28;1638;-55
2021/07/11 14:28:20;;;;;;;;;;;;;;;;;;5066861;28;1014;-55
2021/07/11 14:30:45;;;;;;;;;;;;;;;;;;5066780;28;1335;-53
2021/07/11 14:33:10;;;;;;;;;;;;;;;;;;5066160;28;1571;-55
2021/07/11 14:35:36;;;;;;;;;;;;;;;;;;5065255;28;1428;-55
2021/07/11 14:38:01;;;;;;;;;;;;;;;;;;5066647;28;1175;-55
2021/07/11 14:40:26;;;;;;;;;;;;;;;;;;5062703;28;1647;-55
2021/07/11 14:42:51;;;;;;;;;;;;;;;;;;5067723;28;1993;-55
2021/07/11 14:45:17;;;;;;;;;;;;;;;;;;5067418;28;1657;-54
2021/07/11 14:47:42;;;;;;;;;;;;;;;;;;5065839;28;1222;-54
2021/07/11 14:50:07;;;;;;;;;;;;;;;;;;5067253;28;1854;-54
2021/07/11 14:52:33;;;;;;;;;;;;;;;;;;5069369;28;1343;-55
2021/07/11 14:54:58;;;;;;;;;;;;;;;;;;5059003;28;1592;-55
2021/07/11 14:57:23;;;;;;;;;;;;;;;;;;5068797;28;1224;-55
2021/07/11 14:59:48;;;;;;;;;;;;;;;;;;5068902;28;1175;-54
2021/07/11 15:02:13;;;;;;;;;;;;;;;;;;5071065;28;1965;-55
2021/07/11 15:04:42;;;;;;;;;;;;;;;;;;5063747;28;1718;-55
2021/07/11 15:07:08;;;;;;;;;;;;;;;;;;5062673;28;1631;-54
2021/07/11 15:09:33;;;;;;;;;;;;;;;;;;5061404;28;1563;-52
2021/07/11 15:11:58;;;;;;;;;;;;;;;;;;5070482;28;1290;-55
2021/07/11 15:14:23;;;;;;;;;;;;;;;;;;5064609;28;1540;-55
2021/07/11 15:16:48;;;;;;;;;;;;;;;;;;5069756;28;1780;-55
2021/07/11 15:19:14;;;;;;;;;;;;;;;;;;5072801;28;1155;-54
2021/07/11 15:21:39;;;;;;;;;;;;;;;;;;5069989;28;1321;-55
2021/07/11 15:24:04;;;;;;;;;;;;;;;;;;5066640;28;1897;-55
2021/07/11 15:26:29;;;;;;;;;;;;;;;;;;5070845;28;1301;-55
2021/07/11 15:28:54;;;;;;;;;;;;;;;;;;5070307;28;1276;-55
2021/07/11 15:31:21;;;;;;;;;;;;;;;;;;5071550;28;1404;-54
2021/07/11 15:33:46;;;;;;;;;;;;;;;;;;5067627;28;1540;-55
2021/07/11 15:36:11;;;;;;;;;;;;;;;;;;5071029;28;1452;-55
2021/07/11 15:38:37;;;;;;;;;;;;;;;;;;5070830;28;1250;-55
2021/07/11 15:41:02;;;;;;;;;;;;;;;;;;5064438;28;2019;-55
2021/07/11 15:43:27;;;;;;;;;;;;;;;;;;5070839;28;1977;-55
2021/07/11 15:45:52;;;;;;;;;;;;;;;;;;5072819;28;1175;-54
2021/07/11 15:48:18;;;;;;;;;;;;;;;;;;5071050;28;1620;-55
2021/07/11 15:50:44;;;;;;;;;;;;;;;;;;5067804;28;1382;-55
2021/07/11 15:53:13;;;;;;;;;;;;;;;;;;5072583;28;1227;-54
2021/07/11 15:55:38;;;;;;;;;;;;;;;;;;5066661;28;1632;-55
2021/07/11 15:58:06;;;;;;;;;;;;;;;;;;5062421;28;1555;-55
2021/07/11 16:00:32;;;;;;;;;;;;;;;;;;5069965;28;1306;-55
2021/07/11 16:02:58;;;;;;;;;;;;;;;;;;5070962;28;1930;-55
2021/07/11 16:05:23;;;;;;;;;;;;;;;;;;5061467;28;1524;-52
2021/07/11 16:07:49;;;;;;;;;;;;;;;;;;5067392;28;1580;-56
2021/07/11 16:10:14;;;;;;;;;;;;;;;;;;5068516;28;1584;-55
2021/07/11 16:12:40;;;;;;;;;;;;;;;;;;5065593;28;2040;-55
2021/07/11 16:15:05;;;;;;;;;;;;;;;;;;5069419;28;1341;-54
2021/07/11 16:17:30;;;;;;;;;;;;;;;;;;5072083;28;1131;-55
2021/07/11 16:19:56;;;;;;;;;;;;;;;;;;5070677;28;1269;-55
2021/07/11 16:22:21;;;;;;;;;;;;;;;;;;5064332;28;1983;-55
2021/07/11 16:24:46;;;;;;;;;;;;;;;;;;5066617;28;1531;-55
2021/07/11 16:27:11;;;;;;;;;;;;;;;;;;5059223;28;1676;-55
2021/07/11 16:29:36;;;;;;;;;;;;;;;;;;5069232;28;1088;-55
2021/07/11 16:32:02;;;;;;;;;;;;;;;;;;5069351;28;1369;-55
2021/07/11 16:34:27;;;;;;;;;;;;;;;;;;5070929;28;1711;-53
2021/07/11 16:36:52;;;;;;;;;;;;;;;;;;5057572;28;1598;-55
2021/07/11 16:39:17;;;;;;;;;;;;;;;;;;5061190;28;1572;-54
2021/07/11 16:41:43;;;;;;;;;;;;;;;;;;5051003;28;2105;-55
2021/07/11 16:44:08;;;;;;;;;;;;;;;;;;5065524;28;1969;-53
2021/07/11 16:46:33;;;;;;;;;;;;;;;;;;5063939;28;1239;-55
2021/07/11 16:48:58;;;;;;;;;;;;;;;;;;5060069;28;1376;-55
2021/07/11 16:51:24;;;;;;;;;;;;;;;;;;5060120;28;1572;-55
2021/07/11 16:53:49;;;;;;;;;;;;;;;;;;5067863;28;1584;-54